sensor_id;sensor_type;location;lat;lon;timestamp;temperature;humidity
72928;SHT30;61071;51.618;19.388;2023-05-20T00:00:24;12.76;89.54
72928;SHT30;61071;51.618;19.388;2023-05-20T00:02:49;12.65;89.63
72928;SHT30;61071;51.618;19.388;2023-05-20T00:05:15;12.65;89.86
72928;SHT30;61071;51.618;19.388;2023-05-20T00:07:40;12.74;89.67
72928;SHT30;61071;51.618;19.388;2023-05-20T00:10:06;12.64;89.73
72928;SHT30;61071;51.618;19.388;2023-05-20T00:12:31;12.53;90.04
72928;SHT30;61071;51.618;19.388;2023-05-20T00:14:57;12.33;90.61
72928;SHT30;61071;51.618;19.388;2023-05-20T00:17:22;12.26;91.20
72928;SHT30;61071;51.618;19.388;2023-05-20T00:19:49;12.22;91.25
72928;SHT30;61071;51.618;19.388;2023-05-20T00:22:15;12.14;91.65
72928;SHT30;61071;51.618;19.388;2023-05-20T00:24:40;12.22;91.69
72928;SHT30;61071;51.618;19.388;2023-05-20T00:27:06;12.06;91.95
72928;SHT30;61071;51.618;19.388;2023-05-20T00:29:32;12.12;92.15
72928;SHT30;61071;51.618;19.388;2023-05-20T00:31:58;12.22;91.94
72928;SHT30;61071;51.618;19.388;2023-05-20T00:34:23;12.16;91.75
72928;SHT30;61071;51.618;19.388;2023-05-20T00:36:49;12.22;91.84
72928;SHT30;61071;51.618;19.388;2023-05-20T00:39:15;12.14;91.92
72928;SHT30;61071;51.618;19.388;2023-05-20T00:41:40;12.19;91.78
72928;SHT30;61071;51.618;19.388;2023-05-20T00:44:06;12.34;91.18
72928;SHT30;61071;51.618;19.388;2023-05-20T00:46:32;12.36;91.34
72928;SHT30;61071;51.618;19.388;2023-05-20T00:48:57;12.26;91.59
72928;SHT30;61071;51.618;19.388;2023-05-20T00:51:23;12.49;90.96
72928;SHT30;61071;51.618;19.388;2023-05-20T00:53:49;12.63;90.39
72928;SHT30;61071;51.618;19.388;2023-05-20T00:56:15;12.74;89.79
72928;SHT30;61071;51.618;19.388;2023-05-20T00:58:40;12.85;89.40
72928;SHT30;61071;51.618;19.388;2023-05-20T01:01:06;12.83;89.23
72928;SHT30;61071;51.618;19.388;2023-05-20T01:03:32;12.76;89.67
72928;SHT30;61071;51.618;19.388;2023-05-20T01:05:57;12.47;90.57
72928;SHT30;61071;51.618;19.388;2023-05-20T01:08:24;12.65;90.31
72928;SHT30;61071;51.618;19.388;2023-05-20T01:11:26;12.56;90.02
72928;SHT30;61071;51.618;19.388;2023-05-20T01:14:02;12.63;89.88
72928;SHT30;61071;51.618;19.388;2023-05-20T01:16:31;12.53;90.34
72928;SHT30;61071;51.618;19.388;2023-05-20T01:18:58;12.44;90.55
72928;SHT30;61071;51.618;19.388;2023-05-20T01:21:29;12.49;90.44
72928;SHT30;61071;51.618;19.388;2023-05-20T01:23:55;12.53;90.45
72928;SHT30;61071;51.618;19.388;2023-05-20T01:26:21;12.53;90.50
72928;SHT30;61071;51.618;19.388;2023-05-20T01:28:51;12.47;90.87
72928;SHT30;61071;51.618;19.388;2023-05-20T01:31:26;12.43;90.46
72928;SHT30;61071;51.618;19.388;2023-05-20T01:33:55;12.52;90.84
72928;SHT30;61071;51.618;19.388;2023-05-20T01:36:22;12.34;90.71
72928;SHT30;61071;51.618;19.388;2023-05-20T01:38:50;12.30;91.23
72928;SHT30;61071;51.618;19.388;2023-05-20T01:41:16;12.23;91.43
72928;SHT30;61071;51.618;19.388;2023-05-20T01:43:42;12.29;91.53
72928;SHT30;61071;51.618;19.388;2023-05-20T01:46:08;12.42;91.47
72928;SHT30;61071;51.618;19.388;2023-05-20T01:48:33;12.60;90.24
72928;SHT30;61071;51.618;19.388;2023-05-20T01:50:59;12.25;91.16
72928;SHT30;61071;51.618;19.388;2023-05-20T01:53:24;12.40;91.35
72928;SHT30;61071;51.618;19.388;2023-05-20T01:55:49;12.18;91.54
72928;SHT30;61071;51.618;19.388;2023-05-20T01:58:15;12.09;92.14
72928;SHT30;61071;51.618;19.388;2023-05-20T02:00:41;12.18;92.23
72928;SHT30;61071;51.618;19.388;2023-05-20T02:03:06;12.14;92.14
72928;SHT30;61071;51.618;19.388;2023-05-20T02:05:31;12.29;91.87
72928;SHT30;61071;51.618;19.388;2023-05-20T02:07:57;12.47;91.19
72928;SHT30;61071;51.618;19.388;2023-05-20T02:10:22;12.36;91.22
72928;SHT30;61071;51.618;19.388;2023-05-20T02:12:48;12.42;91.13
72928;SHT30;61071;51.618;19.388;2023-05-20T02:15:13;12.28;91.32
72928;SHT30;61071;51.618;19.388;2023-05-20T02:17:39;12.04;92.34
72928;SHT30;61071;51.618;19.388;2023-05-20T02:20:06;12.18;92.13
72928;SHT30;61071;51.618;19.388;2023-05-20T02:22:32;12.39;91.49
72928;SHT30;61071;51.618;19.388;2023-05-20T02:24:57;12.40;91.43
72928;SHT30;61071;51.618;19.388;2023-05-20T02:27:22;12.29;91.47
72928;SHT30;61071;51.618;19.388;2023-05-20T02:29:48;12.21;91.98
72928;SHT30;61071;51.618;19.388;2023-05-20T02:32:13;12.23;91.83
72928;SHT30;61071;51.618;19.388;2023-05-20T02:34:39;12.22;91.59
72928;SHT30;61071;51.618;19.388;2023-05-20T02:37:04;12.21;91.75
72928;SHT30;61071;51.618;19.388;2023-05-20T02:39:29;12.12;92.15
72928;SHT30;61071;51.618;19.388;2023-05-20T02:41:55;12.12;92.52
72928;SHT30;61071;51.618;19.388;2023-05-20T02:44:20;12.11;92.54
72928;SHT30;61071;51.618;19.388;2023-05-20T02:46:46;12.25;92.26
72928;SHT30;61071;51.618;19.388;2023-05-20T02:49:11;12.25;91.92
72928;SHT30;61071;51.618;19.388;2023-05-20T02:51:36;12.21;91.90
72928;SHT30;61071;51.618;19.388;2023-05-20T02:54:02;12.25;91.80
72928;SHT30;61071;51.618;19.388;2023-05-20T02:56:27;12.14;92.31
72928;SHT30;61071;51.618;19.388;2023-05-20T02:58:53;12.05;92.60
72928;SHT30;61071;51.618;19.388;2023-05-20T03:01:18;12.09;92.63
72928;SHT30;61071;51.618;19.388;2023-05-20T03:03:44;12.29;92.35
72928;SHT30;61071;51.618;19.388;2023-05-20T03:06:09;12.30;91.98
72928;SHT30;61071;51.618;19.388;2023-05-20T03:08:34;12.39;91.72
72928;SHT30;61071;51.618;19.388;2023-05-20T03:11:00;12.49;91.43
72928;SHT30;61071;51.618;19.388;2023-05-20T03:13:26;12.30;91.79
72928;SHT30;61071;51.618;19.388;2023-05-20T03:15:51;12.44;91.65
72928;SHT30;61071;51.618;19.388;2023-05-20T03:18:17;12.39;91.53
72928;SHT30;61071;51.618;19.388;2023-05-20T03:20:42;12.43;91.61
72928;SHT30;61071;51.618;19.388;2023-05-20T03:23:08;12.42;91.34
72928;SHT30;61071;51.618;19.388;2023-05-20T03:25:34;12.28;91.89
72928;SHT30;61071;51.618;19.388;2023-05-20T03:28:00;12.34;91.74
72928;SHT30;61071;51.618;19.388;2023-05-20T03:30:26;12.37;91.95
72928;SHT30;61071;51.618;19.388;2023-05-20T03:32:55;12.46;91.46
72928;SHT30;61071;51.618;19.388;2023-05-20T03:35:24;12.30;91.79
72928;SHT30;61071;51.618;19.388;2023-05-20T03:37:49;12.18;92.08
72928;SHT30;61071;51.618;19.388;2023-05-20T03:40:18;12.18;92.42
72928;SHT30;61071;51.618;19.388;2023-05-20T03:42:45;12.14;92.40
72928;SHT30;61071;51.618;19.388;2023-05-20T03:45:11;12.26;92.36
72928;SHT30;61071;51.618;19.388;2023-05-20T03:47:36;12.28;92.08
72928;SHT30;61071;51.618;19.388;2023-05-20T03:50:02;12.32;92.09
72928;SHT30;61071;51.618;19.388;2023-05-20T03:52:27;12.46;92.01
72928;SHT30;61071;51.618;19.388;2023-05-20T03:54:53;12.34;91.90
72928;SHT30;61071;51.618;19.388;2023-05-20T03:57:18;12.43;91.86
72928;SHT30;61071;51.618;19.388;2023-05-20T03:59:44;12.67;91.17
72928;SHT30;61071;51.618;19.388;2023-05-20T04:02:10;12.64;90.86
72928;SHT30;61071;51.618;19.388;2023-05-20T04:04:36;12.60;90.95
72928;SHT30;61071;51.618;19.388;2023-05-20T04:07:02;12.54;91.25
72928;SHT30;61071;51.618;19.388;2023-05-20T04:09:32;12.77;90.66
72928;SHT30;61071;51.618;19.388;2023-05-20T04:11:57;12.74;90.74
72928;SHT30;61071;51.618;19.388;2023-05-20T04:14:22;12.92;90.36
72928;SHT30;61071;51.618;19.388;2023-05-20T04:16:48;12.98;90.20
72928;SHT30;61071;51.618;19.388;2023-05-20T04:19:14;13.16;89.27
72928;SHT30;61071;51.618;19.388;2023-05-20T04:21:41;12.97;89.61
72928;SHT30;61071;51.618;19.388;2023-05-20T04:24:07;13.29;88.60
72928;SHT30;61071;51.618;19.388;2023-05-20T04:26:32;13.18;88.49
72928;SHT30;61071;51.618;19.388;2023-05-20T04:29:01;13.08;88.98
72928;SHT30;61071;51.618;19.388;2023-05-20T04:31:29;13.43;87.93
72928;SHT30;61071;51.618;19.388;2023-05-20T04:33:56;13.57;87.30
72928;SHT30;61071;51.618;19.388;2023-05-20T04:36:22;13.22;88.00
72928;SHT30;61071;51.618;19.388;2023-05-20T04:38:53;13.42;88.02
72928;SHT30;61071;51.618;19.388;2023-05-20T04:41:18;13.22;88.09
72928;SHT30;61071;51.618;19.388;2023-05-20T04:43:44;13.56;87.68
72928;SHT30;61071;51.618;19.388;2023-05-20T04:46:10;13.76;86.85
72928;SHT30;61071;51.618;19.388;2023-05-20T04:48:35;13.88;86.15
72928;SHT30;61071;51.618;19.388;2023-05-20T04:51:01;13.91;85.87
72928;SHT30;61071;51.618;19.388;2023-05-20T04:53:27;13.93;85.79
72928;SHT30;61071;51.618;19.388;2023-05-20T04:55:55;14.00;85.34
72928;SHT30;61071;51.618;19.388;2023-05-20T04:58:22;13.60;86.56
72928;SHT30;61071;51.618;19.388;2023-05-20T05:00:50;13.77;86.38
72928;SHT30;61071;51.618;19.388;2023-05-20T05:03:16;13.88;86.07
72928;SHT30;61071;51.618;19.388;2023-05-20T05:05:42;14.01;85.41
72928;SHT30;61071;51.618;19.388;2023-05-20T05:08:09;14.08;85.19
72928;SHT30;61071;51.618;19.388;2023-05-20T05:10:36;14.05;85.15
72928;SHT30;61071;51.618;19.388;2023-05-20T05:13:02;14.07;85.57
72928;SHT30;61071;51.618;19.388;2023-05-20T05:15:28;14.18;84.36
72928;SHT30;61071;51.618;19.388;2023-05-20T05:17:53;13.95;84.58
72928;SHT30;61071;51.618;19.388;2023-05-20T05:20:19;13.98;85.21
72928;SHT30;61071;51.618;19.388;2023-05-20T05:22:45;14.13;84.84
72928;SHT30;61071;51.618;19.388;2023-05-20T05:25:11;14.32;84.28
72928;SHT30;61071;51.618;19.388;2023-05-20T05:27:37;14.49;83.24
72928;SHT30;61071;51.618;19.388;2023-05-20T05:30:04;14.62;83.04
72928;SHT30;61071;51.618;19.388;2023-05-20T05:32:30;14.68;82.77
72928;SHT30;61071;51.618;19.388;2023-05-20T05:34:56;14.46;82.98
72928;SHT30;61071;51.618;19.388;2023-05-20T05:37:22;14.66;82.86
72928;SHT30;61071;51.618;19.388;2023-05-20T05:39:47;14.46;83.07
72928;SHT30;61071;51.618;19.388;2023-05-20T05:42:12;14.75;82.53
72928;SHT30;61071;51.618;19.388;2023-05-20T05:44:38;14.48;83.05
72928;SHT30;61071;51.618;19.388;2023-05-20T05:47:04;13.73;85.48
72928;SHT30;61071;51.618;19.388;2023-05-20T05:49:31;13.73;85.86
72928;SHT30;61071;51.618;19.388;2023-05-20T05:51:56;13.76;85.98
72928;SHT30;61071;51.618;19.388;2023-05-20T05:54:22;13.80;85.92
72928;SHT30;61071;51.618;19.388;2023-05-20T05:56:47;13.80;86.19
72928;SHT30;61071;51.618;19.388;2023-05-20T05:59:14;13.86;85.98
72928;SHT30;61071;51.618;19.388;2023-05-20T06:01:40;13.91;85.80
72928;SHT30;61071;51.618;19.388;2023-05-20T06:04:05;13.91;86.04
72928;SHT30;61071;51.618;19.388;2023-05-20T06:06:31;14.20;84.56
72928;SHT30;61071;51.618;19.388;2023-05-20T06:08:56;13.95;84.89
72928;SHT30;61071;51.618;19.388;2023-05-20T06:11:22;13.88;85.10
72928;SHT30;61071;51.618;19.388;2023-05-20T06:13:49;13.83;85.60
72928;SHT30;61071;51.618;19.388;2023-05-20T06:16:14;14.00;85.75
72928;SHT30;61071;51.618;19.388;2023-05-20T06:18:40;14.04;85.68
72928;SHT30;61071;51.618;19.388;2023-05-20T06:21:06;13.70;85.86
72928;SHT30;61071;51.618;19.388;2023-05-20T06:23:31;13.81;86.14
72928;SHT30;61071;51.618;19.388;2023-05-20T06:25:57;13.71;86.13
72928;SHT30;61071;51.618;19.388;2023-05-20T06:28:24;13.90;86.11
72928;SHT30;61071;51.618;19.388;2023-05-20T06:30:49;14.04;85.48
72928;SHT30;61071;51.618;19.388;2023-05-20T06:33:14;13.78;85.85
72928;SHT30;61071;51.618;19.388;2023-05-20T06:35:45;13.59;86.78
72928;SHT30;61071;51.618;19.388;2023-05-20T06:38:10;13.56;87.03
72928;SHT30;61071;51.618;19.388;2023-05-20T06:40:35;13.59;87.08
72928;SHT30;61071;51.618;19.388;2023-05-20T06:43:01;13.57;87.42
72928;SHT30;61071;51.618;19.388;2023-05-20T06:45:26;13.66;87.12
72928;SHT30;61071;51.618;19.388;2023-05-20T06:47:52;13.93;86.64
72928;SHT30;61071;51.618;19.388;2023-05-20T06:50:18;13.77;86.85
72928;SHT30;61071;51.618;19.388;2023-05-20T06:52:44;13.78;87.05
72928;SHT30;61071;51.618;19.388;2023-05-20T06:55:09;14.15;86.47
72928;SHT30;61071;51.618;19.388;2023-05-20T06:57:35;14.45;85.32
72928;SHT30;61071;51.618;19.388;2023-05-20T07:00:02;14.25;86.11
72928;SHT30;61071;51.618;19.388;2023-05-20T07:02:28;14.51;85.38
72928;SHT30;61071;51.618;19.388;2023-05-20T07:04:53;14.84;84.14
72928;SHT30;61071;51.618;19.388;2023-05-20T07:07:19;14.65;84.49
72928;SHT30;61071;51.618;19.388;2023-05-20T07:09:44;14.90;84.42
72928;SHT30;61071;51.618;19.388;2023-05-20T07:12:09;14.90;84.33
72928;SHT30;61071;51.618;19.388;2023-05-20T07:14:35;15.52;82.83
72928;SHT30;61071;51.618;19.388;2023-05-20T07:17:00;15.39;81.78
72928;SHT30;61071;51.618;19.388;2023-05-20T07:19:25;15.55;81.69
72928;SHT30;61071;51.618;19.388;2023-05-20T07:21:51;15.82;80.30
72928;SHT30;61071;51.618;19.388;2023-05-20T07:24:17;15.41;81.44
72928;SHT30;61071;51.618;19.388;2023-05-20T07:26:42;15.34;82.62
72928;SHT30;61071;51.618;19.388;2023-05-20T07:29:08;15.54;82.01
72928;SHT30;61071;51.618;19.388;2023-05-20T07:31:34;16.00;80.59
72928;SHT30;61071;51.618;19.388;2023-05-20T07:34:00;16.00;79.88
72928;SHT30;61071;51.618;19.388;2023-05-20T07:36:26;16.16;80.08
72928;SHT30;61071;51.618;19.388;2023-05-20T07:38:52;16.06;79.19
72928;SHT30;61071;51.618;19.388;2023-05-20T07:41:17;15.89;80.18
72928;SHT30;61071;51.618;19.388;2023-05-20T07:43:43;15.82;81.01
72928;SHT30;61071;51.618;19.388;2023-05-20T07:46:08;16.17;79.97
72928;SHT30;61071;51.618;19.388;2023-05-20T07:48:34;16.06;79.76
72928;SHT30;61071;51.618;19.388;2023-05-20T07:51:00;16.16;80.10
72928;SHT30;61071;51.618;19.388;2023-05-20T07:53:25;16.42;79.02
72928;SHT30;61071;51.618;19.388;2023-05-20T07:55:51;16.38;79.38
72928;SHT30;61071;51.618;19.388;2023-05-20T07:58:16;16.24;79.43
72928;SHT30;61071;51.618;19.388;2023-05-20T08:00:43;16.17;78.43
72928;SHT30;61071;51.618;19.388;2023-05-20T08:03:09;16.31;79.29
72928;SHT30;61071;51.618;19.388;2023-05-20T08:05:36;16.37;77.83
72928;SHT30;61071;51.618;19.388;2023-05-20T08:08:03;16.78;78.12
72928;SHT30;61071;51.618;19.388;2023-05-20T08:10:28;17.10;77.82
72928;SHT30;61071;51.618;19.388;2023-05-20T08:12:54;17.27;76.79
72928;SHT30;61071;51.618;19.388;2023-05-20T08:15:20;17.68;74.55
72928;SHT30;61071;51.618;19.388;2023-05-20T08:17:45;17.40;73.52
72928;SHT30;61071;51.618;19.388;2023-05-20T08:20:11;17.15;74.10
72928;SHT30;61071;51.618;19.388;2023-05-20T08:22:37;17.20;76.01
72928;SHT30;61071;51.618;19.388;2023-05-20T08:25:06;16.82;75.94
72928;SHT30;61071;51.618;19.388;2023-05-20T08:27:32;17.07;74.60
72928;SHT30;61071;51.618;19.388;2023-05-20T08:29:57;16.99;75.27
72928;SHT30;61071;51.618;19.388;2023-05-20T08:32:23;16.90;74.72
72928;SHT30;61071;51.618;19.388;2023-05-20T08:34:48;17.03;75.71
72928;SHT30;61071;51.618;19.388;2023-05-20T08:37:14;17.20;75.07
72928;SHT30;61071;51.618;19.388;2023-05-20T08:39:39;17.12;74.44
72928;SHT30;61071;51.618;19.388;2023-05-20T08:42:05;17.27;75.03
72928;SHT30;61071;51.618;19.388;2023-05-20T08:44:33;17.57;73.76
72928;SHT30;61071;51.618;19.388;2023-05-20T08:46:59;17.31;74.81
72928;SHT30;61071;51.618;19.388;2023-05-20T08:49:28;17.33;74.72
72928;SHT30;61071;51.618;19.388;2023-05-20T08:51:53;17.57;74.67
72928;SHT30;61071;51.618;19.388;2023-05-20T08:54:20;17.67;74.21
72928;SHT30;61071;51.618;19.388;2023-05-20T08:56:48;17.91;71.92
72928;SHT30;61071;51.618;19.388;2023-05-20T08:59:14;18.25;72.56
72928;SHT30;61071;51.618;19.388;2023-05-20T09:01:43;18.40;73.06
72928;SHT30;61071;51.618;19.388;2023-05-20T09:04:08;18.53;68.84
72928;SHT30;61071;51.618;19.388;2023-05-20T09:06:46;18.29;72.11
72928;SHT30;61071;51.618;19.388;2023-05-20T09:09:13;18.64;72.28
72928;SHT30;61071;51.618;19.388;2023-05-20T09:11:40;18.71;71.15
72928;SHT30;61071;51.618;19.388;2023-05-20T09:14:06;18.46;69.46
72928;SHT30;61071;51.618;19.388;2023-05-20T09:16:32;18.17;70.91
72928;SHT30;61071;51.618;19.388;2023-05-20T09:18:58;18.39;71.61
72928;SHT30;61071;51.618;19.388;2023-05-20T09:21:29;18.40;70.89
72928;SHT30;61071;51.618;19.388;2023-05-20T09:23:55;18.39;71.13
72928;SHT30;61071;51.618;19.388;2023-05-20T09:26:27;18.40;70.36
72928;SHT30;61071;51.618;19.388;2023-05-20T09:28:58;18.43;71.14
72928;SHT30;61071;51.618;19.388;2023-05-20T09:31:30;18.43;71.76
72928;SHT30;61071;51.618;19.388;2023-05-20T09:33:59;18.74;71.93
72928;SHT30;61071;51.618;19.388;2023-05-20T09:36:28;19.23;70.38
72928;SHT30;61071;51.618;19.388;2023-05-20T09:39:00;19.12;69.77
72928;SHT30;61071;51.618;19.388;2023-05-20T09:41:34;19.16;69.94
72928;SHT30;61071;51.618;19.388;2023-05-20T09:44:02;19.30;69.94
72928;SHT30;61071;51.618;19.388;2023-05-20T09:46:31;19.40;70.07
72928;SHT30;61071;51.618;19.388;2023-05-20T09:48:58;19.40;68.24
72928;SHT30;61071;51.618;19.388;2023-05-20T09:51:25;19.30;68.72
72928;SHT30;61071;51.618;19.388;2023-05-20T09:53:52;18.83;70.22
72928;SHT30;61071;51.618;19.388;2023-05-20T09:56:19;19.06;70.78
72928;SHT30;61071;51.618;19.388;2023-05-20T09:58:48;19.06;70.74
72928;SHT30;61071;51.618;19.388;2023-05-20T10:01:14;19.14;70.63
72928;SHT30;61071;51.618;19.388;2023-05-20T10:03:39;19.59;69.87
72928;SHT30;61071;51.618;19.388;2023-05-20T10:11:47;20.01;67.61
72928;SHT30;61071;51.618;19.388;2023-05-20T10:17:44;20.38;67.33
72928;SHT30;61071;51.618;19.388;2023-05-20T10:20:11;20.04;68.86
72928;SHT30;61071;51.618;19.388;2023-05-20T10:22:37;20.48;68.37
72928;SHT30;61071;51.618;19.388;2023-05-20T10:25:08;20.53;67.61
72928;SHT30;61071;51.618;19.388;2023-05-20T10:27:46;20.40;68.61
72928;SHT30;61071;51.618;19.388;2023-05-20T10:30:18;20.07;69.16
72928;SHT30;61071;51.618;19.388;2023-05-20T10:32:57;20.07;69.74
72928;SHT30;61071;51.618;19.388;2023-05-20T10:35:25;20.29;67.94
72928;SHT30;61071;51.618;19.388;2023-05-20T10:37:53;20.25;68.83
72928;SHT30;61071;51.618;19.388;2023-05-20T10:40:21;20.01;69.61
72928;SHT30;61071;51.618;19.388;2023-05-20T10:42:47;19.92;69.93
72928;SHT30;61071;51.618;19.388;2023-05-20T10:45:27;19.98;69.34
72928;SHT30;61071;51.618;19.388;2023-05-20T10:47:57;20.17;68.53
72928;SHT30;61071;51.618;19.388;2023-05-20T10:50:36;20.25;69.48
72928;SHT30;61071;51.618;19.388;2023-05-20T10:53:10;20.43;70.54
72928;SHT30;61071;51.618;19.388;2023-05-20T10:55:38;20.67;68.28
72928;SHT30;61071;51.618;19.388;2023-05-20T10:58:05;20.97;67.42
72928;SHT30;61071;51.618;19.388;2023-05-20T11:00:35;21.28;66.11
72928;SHT30;61071;51.618;19.388;2023-05-20T11:03:03;21.46;67.38
72928;SHT30;61071;51.618;19.388;2023-05-20T11:05:30;21.78;66.69
72928;SHT30;61071;51.618;19.388;2023-05-20T11:08:05;21.35;68.29
72928;SHT30;61071;51.618;19.388;2023-05-20T11:10:35;21.67;67.82
72928;SHT30;61071;51.618;19.388;2023-05-20T11:13:04;21.32;66.62
72928;SHT30;61071;51.618;19.388;2023-05-20T11:15:31;21.23;68.98
72928;SHT30;61071;51.618;19.388;2023-05-20T11:18:02;21.17;67.07
72928;SHT30;61071;51.618;19.388;2023-05-20T11:20:27;20.88;68.01
72928;SHT30;61071;51.618;19.388;2023-05-20T11:22:54;21.21;68.80
72928;SHT30;61071;51.618;19.388;2023-05-20T11:25:21;21.52;67.71
72928;SHT30;61071;51.618;19.388;2023-05-20T11:27:49;21.32;68.43
72928;SHT30;61071;51.618;19.388;2023-05-20T11:30:15;21.17;68.50
72928;SHT30;61071;51.618;19.388;2023-05-20T11:32:43;21.32;68.20
72928;SHT30;61071;51.618;19.388;2023-05-20T11:35:24;21.39;70.17
72928;SHT30;61071;51.618;19.388;2023-05-20T11:38:02;21.23;68.78
72928;SHT30;61071;51.618;19.388;2023-05-20T11:40:30;21.70;67.01
72928;SHT30;61071;51.618;19.388;2023-05-20T11:43:00;21.65;67.18
72928;SHT30;61071;51.618;19.388;2023-05-20T11:45:38;21.96;68.67
72928;SHT30;61071;51.618;19.388;2023-05-20T11:48:04;22.34;65.17
72928;SHT30;61071;51.618;19.388;2023-05-20T11:50:45;22.33;64.12
72928;SHT30;61071;51.618;19.388;2023-05-20T11:53:19;21.99;66.80
72928;SHT30;61071;51.618;19.388;2023-05-20T11:55:47;22.28;66.19
72928;SHT30;61071;51.618;19.388;2023-05-20T11:58:25;22.09;64.14
72928;SHT30;61071;51.618;19.388;2023-05-20T12:00:51;22.25;67.70
72928;SHT30;61071;51.618;19.388;2023-05-20T12:03:17;22.21;64.83
72928;SHT30;61071;51.618;19.388;2023-05-20T12:05:43;22.25;65.53
72928;SHT30;61071;51.618;19.388;2023-05-20T12:08:09;22.04;66.94
72928;SHT30;61071;51.618;19.388;2023-05-20T12:10:35;21.94;66.55
72928;SHT30;61071;51.618;19.388;2023-05-20T12:13:03;21.70;68.73
72928;SHT30;61071;51.618;19.388;2023-05-20T12:15:36;21.78;69.72
72928;SHT30;61071;51.618;19.388;2023-05-20T12:18:01;21.90;66.37
72928;SHT30;61071;51.618;19.388;2023-05-20T12:20:28;22.16;66.80
72928;SHT30;61071;51.618;19.388;2023-05-20T12:22:55;22.01;66.53
72928;SHT30;61071;51.618;19.388;2023-05-20T12:25:20;21.85;67.03
72928;SHT30;61071;51.618;19.388;2023-05-20T12:27:47;21.73;67.33
72928;SHT30;61071;51.618;19.388;2023-05-20T12:30:18;21.55;68.73
72928;SHT30;61071;51.618;19.388;2023-05-20T12:32:45;21.59;66.94
72928;SHT30;61071;51.618;19.388;2023-05-20T12:35:11;21.66;67.47
72928;SHT30;61071;51.618;19.388;2023-05-20T12:37:39;21.39;66.99
72928;SHT30;61071;51.618;19.388;2023-05-20T12:40:07;21.37;67.08
72928;SHT30;61071;51.618;19.388;2023-05-20T12:42:37;21.35;67.93
72928;SHT30;61071;51.618;19.388;2023-05-20T12:45:05;21.53;67.25
72928;SHT30;61071;51.618;19.388;2023-05-20T12:47:32;21.72;68.17
72928;SHT30;61071;51.618;19.388;2023-05-20T12:49:58;22.00;68.00
72928;SHT30;61071;51.618;19.388;2023-05-20T12:52:24;22.18;66.28
72928;SHT30;61071;51.618;19.388;2023-05-20T12:54:50;22.47;65.82
72928;SHT30;61071;51.618;19.388;2023-05-20T12:57:16;22.22;65.38
72928;SHT30;61071;51.618;19.388;2023-05-20T12:59:44;21.97;65.85
72928;SHT30;61071;51.618;19.388;2023-05-20T13:02:09;22.21;66.07
72928;SHT30;61071;51.618;19.388;2023-05-20T13:04:35;22.45;65.02
72928;SHT30;61071;51.618;19.388;2023-05-20T13:07:00;22.71;64.37
72928;SHT30;61071;51.618;19.388;2023-05-20T13:09:26;22.72;63.74
72928;SHT30;61071;51.618;19.388;2023-05-20T13:11:51;22.59;64.66
72928;SHT30;61071;51.618;19.388;2023-05-20T13:14:17;22.68;65.65
72928;SHT30;61071;51.618;19.388;2023-05-20T13:16:42;22.48;63.49
72928;SHT30;61071;51.618;19.388;2023-05-20T13:19:08;22.36;64.51
72928;SHT30;61071;51.618;19.388;2023-05-20T13:21:33;22.40;64.19
72928;SHT30;61071;51.618;19.388;2023-05-20T13:23:58;22.62;64.63
72928;SHT30;61071;51.618;19.388;2023-05-20T13:26:25;22.89;63.61
72928;SHT30;61071;51.618;19.388;2023-05-20T13:28:51;23.20;63.79
72928;SHT30;61071;51.618;19.388;2023-05-20T13:31:16;23.37;61.69
72928;SHT30;61071;51.618;19.388;2023-05-20T13:33:42;23.20;64.41
72928;SHT30;61071;51.618;19.388;2023-05-20T13:36:07;23.30;62.87
72928;SHT30;61071;51.618;19.388;2023-05-20T13:38:32;23.44;63.07
72928;SHT30;61071;51.618;19.388;2023-05-20T13:40:58;23.31;61.68
72928;SHT30;61071;51.618;19.388;2023-05-20T13:43:25;23.33;60.58
72928;SHT30;61071;51.618;19.388;2023-05-20T13:45:51;23.37;61.71
72928;SHT30;61071;51.618;19.388;2023-05-20T13:48:16;23.67;61.61
72928;SHT30;61071;51.618;19.388;2023-05-20T13:50:42;23.71;59.24
72928;SHT30;61071;51.618;19.388;2023-05-20T13:53:07;23.79;59.81
72928;SHT30;61071;51.618;19.388;2023-05-20T13:55:37;23.75;59.74
72928;SHT30;61071;51.618;19.388;2023-05-20T13:58:03;23.68;60.15
72928;SHT30;61071;51.618;19.388;2023-05-20T14:00:30;23.51;59.53
72928;SHT30;61071;51.618;19.388;2023-05-20T14:02:56;23.57;59.76
72928;SHT30;61071;51.618;19.388;2023-05-20T14:05:21;23.37;60.76
72928;SHT30;61071;51.618;19.388;2023-05-20T14:07:47;23.41;61.65
72928;SHT30;61071;51.618;19.388;2023-05-20T14:10:13;23.44;61.81
72928;SHT30;61071;51.618;19.388;2023-05-20T14:12:38;23.43;60.90
72928;SHT30;61071;51.618;19.388;2023-05-20T14:15:04;23.43;62.03
72928;SHT30;61071;51.618;19.388;2023-05-20T14:17:30;23.28;60.43
72928;SHT30;61071;51.618;19.388;2023-05-20T14:19:55;23.04;61.06
72928;SHT30;61071;51.618;19.388;2023-05-20T14:22:21;23.22;60.16
72928;SHT30;61071;51.618;19.388;2023-05-20T14:24:46;23.06;62.36
72928;SHT30;61071;51.618;19.388;2023-05-20T14:27:11;23.04;60.29
72928;SHT30;61071;51.618;19.388;2023-05-20T14:29:38;23.14;62.03
72928;SHT30;61071;51.618;19.388;2023-05-20T14:32:04;23.17;60.77
72928;SHT30;61071;51.618;19.388;2023-05-20T14:34:29;23.30;61.79
72928;SHT30;61071;51.618;19.388;2023-05-20T14:36:55;23.54;60.43
72928;SHT30;61071;51.618;19.388;2023-05-20T14:39:21;23.67;59.05
72928;SHT30;61071;51.618;19.388;2023-05-20T14:41:46;23.71;59.83
72928;SHT30;61071;51.618;19.388;2023-05-20T14:44:12;23.74;59.74
72928;SHT30;61071;51.618;19.388;2023-05-20T14:46:37;23.98;59.43
72928;SHT30;61071;51.618;19.388;2023-05-20T14:49:03;23.86;60.42
72928;SHT30;61071;51.618;19.388;2023-05-20T14:51:28;23.99;59.73
72928;SHT30;61071;51.618;19.388;2023-05-20T14:53:53;23.90;60.77
72928;SHT30;61071;51.618;19.388;2023-05-20T14:56:19;23.67;60.24
72928;SHT30;61071;51.618;19.388;2023-05-20T14:58:44;23.55;57.88
72928;SHT30;61071;51.618;19.388;2023-05-20T15:01:10;23.44;58.43
72928;SHT30;61071;51.618;19.388;2023-05-20T15:03:35;23.49;60.04
72928;SHT30;61071;51.618;19.388;2023-05-20T15:06:01;23.41;60.03
72928;SHT30;61071;51.618;19.388;2023-05-20T15:08:26;23.39;59.31
72928;SHT30;61071;51.618;19.388;2023-05-20T15:10:52;23.39;60.67
72928;SHT30;61071;51.618;19.388;2023-05-20T15:13:17;23.37;59.92
72928;SHT30;61071;51.618;19.388;2023-05-20T15:15:43;23.46;59.71
72928;SHT30;61071;51.618;19.388;2023-05-20T15:18:08;23.51;59.28
72928;SHT30;61071;51.618;19.388;2023-05-20T15:20:35;23.61;58.33